createdAt,value
2022-10-15T00:02:54.890Z,12.07
2022-10-15T00:05:56.519Z,12.05
2022-10-15T00:08:58.115Z,12.01
2022-10-15T00:11:59.700Z,11.96
2022-10-15T00:15:01.205Z,11.92
2022-10-15T00:18:02.796Z,11.89
2022-10-15T00:21:09.685Z,11.83
2022-10-15T00:24:11.254Z,11.79
2022-10-15T00:27:12.772Z,11.75
2022-10-15T00:30:14.357Z,11.73
2022-10-15T00:33:15.912Z,11.70
2022-10-15T00:36:23.516Z,11.68
2022-10-15T00:39:25.156Z,11.64
2022-10-15T00:42:26.806Z,11.62
2022-10-15T00:45:28.455Z,11.58
2022-10-15T00:48:31.692Z,11.52
2022-10-15T00:51:40.941Z,11.49
2022-10-15T00:54:49.672Z,11.45
2022-10-15T00:57:51.690Z,11.40
2022-10-15T01:00:54.345Z,11.38
2022-10-15T01:03:55.997Z,11.34
2022-10-15T01:06:57.930Z,11.31
2022-10-15T01:10:00.523Z,11.27
2022-10-15T01:13:15.366Z,11.23
2022-10-15T01:16:30.145Z,11.18
2022-10-15T01:19:56.615Z,11.13
2022-10-15T01:23:25.208Z,11.09
2022-10-15T01:26:40.303Z,11.03
2022-10-15T01:29:47.820Z,11.00
2022-10-15T01:33:16.441Z,10.95
2022-10-15T01:36:46.949Z,10.89
2022-10-15T01:39:57.628Z,10.83
2022-10-15T01:43:12.060Z,10.79
2022-10-15T01:46:32.184Z,10.76
2022-10-15T01:49:41.588Z,10.76
2022-10-15T01:52:44.888Z,10.75
2022-10-15T01:55:48.634Z,10.76
2022-10-15T01:58:53.478Z,10.75
2022-10-15T02:01:57.887Z,10.74
2022-10-15T02:04:59.816Z,10.75
2022-10-15T02:08:22.159Z,10.75
2022-10-15T02:11:23.783Z,10.75
2022-10-15T02:14:35.058Z,10.76
2022-10-15T02:17:48.901Z,10.77
2022-10-15T02:21:02.843Z,10.77
2022-10-15T02:24:14.977Z,10.79
2022-10-15T02:27:16.888Z,10.79
2022-10-15T02:30:19.256Z,10.79
2022-10-15T02:33:22.693Z,10.80
2022-10-15T02:36:24.512Z,10.81
2022-10-15T02:39:26.271Z,10.82
2022-10-15T02:42:28.210Z,10.81
2022-10-15T02:45:29.781Z,10.82
2022-10-15T02:48:31.300Z,10.83
2022-10-15T02:51:34.379Z,10.82
2022-10-15T02:54:35.927Z,10.82
2022-10-15T02:57:37.524Z,10.81
2022-10-15T03:00:39.297Z,10.80
2022-10-15T03:03:40.857Z,10.80
2022-10-15T03:06:42.568Z,10.80
2022-10-15T03:09:44.110Z,10.79
2022-10-15T03:12:45.641Z,10.78
2022-10-15T03:15:47.180Z,10.78
2022-10-15T03:18:48.731Z,10.78
2022-10-15T03:21:50.237Z,10.77
2022-10-15T03:24:51.751Z,10.78
2022-10-15T03:27:53.293Z,10.77
2022-10-15T03:30:54.864Z,10.75
2022-10-15T03:33:56.847Z,10.76
2022-10-15T03:36:58.384Z,10.75
2022-10-15T03:39:59.904Z,10.77
2022-10-15T03:43:01.451Z,10.77
2022-10-15T03:46:04.282Z,10.78
2022-10-15T03:49:05.782Z,10.78
2022-10-15T03:52:07.641Z,10.78
2022-10-15T03:55:10.757Z,10.78
2022-10-15T03:58:12.300Z,10.75
2022-10-15T04:01:18.060Z,10.75
2022-10-15T04:04:19.903Z,10.76
2022-10-15T04:07:21.871Z,10.77
2022-10-15T04:10:23.562Z,10.77
2022-10-15T04:13:26.080Z,10.76
2022-10-15T04:16:27.616Z,10.76
2022-10-15T04:19:29.156Z,10.76
2022-10-15T04:22:30.652Z,10.78
2022-10-15T04:25:32.206Z,10.79
2022-10-15T04:28:33.782Z,10.79
2022-10-15T04:31:35.568Z,10.78
2022-10-15T04:34:37.092Z,10.80
2022-10-15T04:37:38.625Z,10.79
2022-10-15T04:40:41.184Z,10.78
2022-10-15T04:43:42.706Z,10.78
2022-10-15T04:46:44.326Z,10.78
2022-10-15T04:49:45.886Z,10.78
2022-10-15T04:52:48.582Z,10.77
2022-10-15T04:55:50.133Z,10.77
2022-10-15T04:58:51.720Z,10.76
2022-10-15T05:01:53.288Z,10.75
2022-10-15T05:04:55.074Z,10.76
2022-10-15T05:08:00.353Z,10.75
2022-10-15T05:11:07.080Z,10.74
2022-10-15T05:14:09.186Z,10.73
2022-10-15T05:17:10.722Z,10.72
2022-10-15T05:20:12.238Z,10.71
2022-10-15T05:23:13.962Z,10.72
2022-10-15T05:26:18.357Z,10.72
2022-10-15T05:29:20.052Z,10.72
2022-10-15T05:35:25.903Z,10.72
2022-10-15T05:38:27.440Z,10.70
2022-10-15T05:41:29.669Z,10.70
2022-10-15T05:44:31.180Z,10.70
2022-10-15T05:47:32.725Z,10.70
2022-10-15T05:50:34.268Z,10.68
2022-10-15T05:53:36.575Z,10.69
2022-10-15T05:56:38.153Z,10.68
2022-10-15T05:59:39.661Z,10.91
2022-10-15T06:02:41.340Z,11.14
2022-10-15T06:05:42.909Z,11.20
2022-10-15T06:08:44.972Z,11.23
2022-10-15T06:11:47.117Z,11.21
2022-10-15T06:14:48.652Z,11.16
2022-10-15T06:17:53.362Z,11.12
2022-10-15T06:20:54.953Z,11.08
2022-10-15T06:23:56.592Z,11.05
2022-10-15T06:26:59.952Z,11.01
2022-10-15T06:30:01.613Z,10.97
2022-10-15T06:33:03.546Z,10.94
2022-10-15T06:36:07.678Z,10.91
2022-10-15T06:39:09.465Z,10.89
2022-10-15T06:42:10.980Z,10.88
2022-10-15T06:45:13.429Z,10.87
2022-10-15T06:48:15.652Z,10.85
2022-10-15T06:51:17.481Z,10.84
2022-10-15T06:54:18.973Z,10.83
2022-10-15T06:57:20.592Z,10.82
2022-10-15T07:00:23.102Z,10.81
2022-10-15T07:03:24.705Z,10.81
2022-10-15T07:06:26.305Z,10.82
2022-10-15T07:09:27.946Z,10.83
2022-10-15T07:12:29.450Z,10.82
2022-10-15T07:15:30.996Z,10.82
2022-10-15T07:18:32.989Z,10.85
2022-10-15T07:21:34.581Z,10.95
2022-10-15T07:24:36.368Z,11.12
2022-10-15T07:27:41.512Z,11.20
2022-10-15T07:30:43.167Z,11.19
2022-10-15T07:33:44.772Z,11.19
2022-10-15T07:36:46.271Z,11.19
2022-10-15T07:39:47.961Z,11.17
2022-10-15T07:42:54.291Z,11.16
2022-10-15T07:45:56.136Z,11.17
2022-10-15T07:48:57.680Z,11.18
2022-10-15T07:51:59.457Z,11.24
2022-10-15T07:55:01.002Z,11.29
2022-10-15T07:58:03.934Z,11.30
2022-10-15T08:01:06.576Z,11.29
2022-10-15T08:04:08.093Z,11.27
2022-10-15T08:07:10.417Z,11.26
2022-10-15T08:10:13.433Z,11.25
2022-10-15T08:13:15.046Z,11.27
2022-10-15T08:16:19.530Z,11.27
2022-10-15T08:19:21.066Z,11.27
2022-10-15T08:22:22.742Z,11.28
2022-10-15T08:25:25.041Z,11.29
2022-10-15T08:28:27.926Z,11.30
2022-10-15T08:31:29.512Z,11.32
2022-10-15T08:34:31.136Z,11.34
2022-10-15T08:37:32.733Z,11.37
2022-10-15T08:40:34.400Z,11.40
2022-10-15T08:43:40.248Z,11.42
2022-10-15T08:46:46.305Z,11.44
2022-10-15T08:49:51.972Z,11.47
2022-10-15T08:52:54.510Z,11.53
2022-10-15T08:56:03.426Z,11.58
2022-10-15T08:59:26.589Z,11.65
2022-10-15T09:02:38.282Z,11.70
2022-10-15T09:05:58.117Z,11.76
2022-10-15T09:09:18.049Z,11.81
2022-10-15T09:12:31.691Z,11.91
2022-10-15T09:15:41.163Z,12.01
2022-10-15T09:18:46.604Z,12.09
2022-10-15T09:21:50.982Z,12.14
2022-10-15T09:24:53.702Z,12.17
2022-10-15T09:27:56.708Z,12.21
2022-10-15T09:30:59.797Z,12.22
2022-10-15T09:34:14.893Z,12.24
2022-10-15T09:37:48.703Z,12.29
2022-10-15T09:41:26.683Z,12.30
2022-10-15T09:44:36.672Z,12.33
2022-10-15T09:47:41.091Z,12.37
2022-10-15T09:50:56.888Z,12.47
2022-10-15T09:54:15.349Z,12.70
2022-10-15T09:57:19.664Z,12.80
2022-10-15T10:00:21.326Z,12.85
2022-10-15T10:03:25.908Z,12.91
2022-10-15T10:06:27.461Z,13.16
2022-10-15T10:09:33.443Z,13.39
2022-10-15T10:12:36.459Z,13.47
2022-10-15T10:15:42.116Z,13.60
2022-10-15T10:18:51.005Z,13.65
2022-10-15T10:22:14.797Z,13.68
2022-10-15T10:25:27.771Z,13.73
2022-10-15T10:28:34.735Z,13.85
2022-10-15T10:31:42.575Z,13.95
2022-10-15T10:34:48.719Z,14.04
2022-10-15T10:37:53.945Z,14.11
2022-10-15T10:41:09.605Z,14.23
2022-10-15T10:44:22.907Z,14.32
2022-10-15T10:47:27.057Z,14.40
2022-10-15T10:50:33.049Z,14.52
2022-10-15T10:53:39.921Z,14.67
2022-10-15T10:56:44.207Z,14.81
2022-10-15T10:59:53.856Z,14.91
2022-10-15T11:02:57.139Z,14.96
2022-10-15T11:06:07.843Z,14.98
2022-10-15T11:09:47.957Z,15.07
2022-10-15T11:13:12.739Z,15.16
2022-10-15T11:17:06.623Z,15.26
2022-10-15T11:20:44.237Z,15.33
2022-10-15T11:23:51.811Z,15.39
2022-10-15T11:27:21.236Z,15.42
2022-10-15T11:30:56.545Z,15.46
2022-10-15T11:34:04.006Z,15.46
2022-10-15T11:37:23.476Z,15.45
2022-10-15T11:40:44.033Z,15.45
2022-10-15T11:44:21.953Z,15.46
2022-10-15T11:47:35.295Z,15.48
2022-10-15T11:50:47.620Z,15.52
2022-10-15T11:54:01.480Z,15.53
2022-10-15T11:57:05.088Z,15.51
2022-10-15T12:00:34.260Z,15.49
2022-10-15T12:03:51.313Z,15.49
2022-10-15T12:06:57.069Z,15.54
2022-10-15T12:10:09.913Z,15.56
2022-10-15T12:13:26.018Z,15.53
2022-10-15T12:16:40.983Z,15.50
2022-10-15T12:20:29.019Z,15.42
2022-10-15T12:23:36.658Z,15.31
2022-10-15T12:26:38.321Z,15.22
2022-10-15T12:29:39.888Z,15.17
2022-10-15T12:32:46.556Z,15.11
2022-10-15T12:35:56.838Z,15.06
2022-10-15T12:39:05.897Z,14.98
2022-10-15T12:42:31.108Z,14.90
2022-10-15T12:45:40.444Z,14.84
2022-10-15T12:48:46.877Z,14.79
2022-10-15T12:51:51.512Z,14.80
2022-10-15T12:55:26.332Z,14.89
2022-10-15T12:58:37.109Z,14.95
2022-10-15T13:01:44.589Z,14.99
2022-10-15T13:04:47.100Z,15.02
2022-10-15T13:07:49.191Z,15.11
2022-10-15T13:10:57.960Z,15.18
2022-10-15T13:14:02.500Z,15.18
2022-10-15T13:17:15.744Z,15.15
2022-10-15T13:20:34.665Z,15.13
2022-10-15T13:23:36.236Z,15.11
2022-10-15T13:26:37.768Z,15.10
2022-10-15T13:29:39.389Z,15.04
2022-10-15T13:32:48.147Z,15.01
2022-10-15T13:35:49.726Z,14.99
2022-10-15T13:38:54.288Z,14.97
2022-10-15T13:42:17.037Z,14.94
2022-10-15T13:45:18.768Z,14.92
2022-10-15T13:48:32.515Z,14.90
2022-10-15T13:51:43.702Z,14.84
2022-10-15T13:54:47.003Z,14.78
2022-10-15T13:57:50.060Z,14.76
2022-10-15T14:00:58.240Z,14.72
2022-10-15T14:04:01.832Z,14.69
2022-10-15T14:07:21.092Z,14.69
2022-10-15T14:10:22.733Z,14.68
2022-10-15T14:13:24.587Z,14.69
2022-10-15T14:16:31.425Z,14.68
2022-10-15T14:19:35.617Z,14.69
2022-10-15T14:22:37.195Z,14.68
2022-10-15T14:25:38.738Z,14.68
2022-10-15T14:28:41.616Z,14.68
2022-10-15T14:31:47.285Z,14.67
2022-10-15T14:34:49.725Z,14.72
2022-10-15T14:38:25.724Z,14.70
2022-10-15T14:41:32.344Z,14.66
2022-10-15T14:44:48.164Z,14.62
2022-10-15T14:47:59.104Z,14.58
2022-10-15T14:51:05.768Z,14.56
2022-10-15T14:54:19.047Z,14.51
2022-10-15T14:57:25.262Z,14.47
2022-10-15T15:00:33.755Z,14.43
2022-10-15T15:03:41.194Z,14.41
2022-10-15T15:06:42.719Z,14.36
2022-10-15T15:09:48.008Z,14.33
2022-10-15T15:12:53.039Z,14.31
2022-10-15T15:15:54.803Z,14.28
2022-10-15T15:18:58.335Z,14.22
2022-10-15T15:21:59.916Z,14.20
2022-10-15T15:25:06.933Z,14.20
2022-10-15T15:28:17.088Z,14.19
2022-10-15T15:31:19.128Z,14.16
2022-10-15T15:34:20.672Z,14.14
2022-10-15T15:37:24.602Z,14.12
2022-10-15T15:40:26.888Z,14.11
2022-10-15T15:43:28.461Z,14.08
2022-10-15T15:46:30.104Z,14.04
2022-10-15T15:49:31.614Z,14.02
2022-10-15T15:52:36.148Z,13.98
2022-10-15T15:55:38.986Z,13.96
2022-10-15T15:58:40.525Z,13.96
2022-10-15T16:01:42.129Z,13.94
2022-10-15T16:04:45.480Z,13.91
2022-10-15T16:07:47.041Z,13.88
2022-10-15T16:10:48.557Z,13.85
2022-10-15T16:13:50.179Z,13.85
2022-10-15T16:16:51.725Z,13.86
2022-10-15T16:19:53.275Z,13.84
2022-10-15T16:22:54.863Z,13.81
2022-10-15T16:25:57.597Z,13.79
2022-10-15T16:28:59.169Z,13.80
2022-10-15T16:32:00.725Z,13.80
2022-10-15T16:35:02.341Z,13.82
2022-10-15T16:38:03.920Z,13.81
2022-10-15T16:41:05.684Z,13.83
2022-10-15T16:44:07.595Z,13.82
2022-10-15T16:47:09.110Z,13.91
2022-10-15T16:50:10.721Z,13.96
2022-10-15T16:53:12.248Z,13.94
2022-10-15T16:56:18.300Z,13.93
2022-10-15T16:59:20.485Z,13.93
2022-10-15T17:02:22.081Z,13.94
2022-10-15T17:05:23.797Z,13.99
2022-10-15T17:08:33.304Z,14.02
2022-10-15T17:11:40.113Z,14.01
2022-10-15T17:14:41.704Z,14.02
2022-10-15T17:17:43.268Z,14.03
2022-10-15T17:20:46.560Z,14.04
2022-10-15T17:23:50.385Z,14.04
2022-10-15T17:26:51.979Z,14.04
2022-10-15T17:29:53.529Z,14.05
2022-10-15T17:32:55.127Z,14.06
2022-10-15T17:35:56.643Z,14.09
2022-10-15T17:38:59.387Z,14.09
2022-10-15T17:42:00.963Z,14.10
2022-10-15T17:45:02.642Z,14.11
2022-10-15T17:48:04.258Z,14.11
2022-10-15T17:51:07.767Z,14.12
2022-10-15T17:54:09.368Z,14.11
2022-10-15T17:57:10.894Z,14.09
2022-10-15T18:00:13.008Z,14.08
2022-10-15T18:03:14.515Z,14.07
2022-10-15T18:06:18.295Z,14.06
2022-10-15T18:09:19.836Z,14.04
2022-10-15T18:12:21.367Z,14.02
2022-10-15T18:15:23.372Z,14.03
2022-10-15T18:18:26.213Z,14.03
2022-10-15T18:21:28.523Z,14.01
2022-10-15T18:24:30.053Z,14.02
2022-10-15T18:27:31.619Z,14.04
2022-10-15T18:30:38.184Z,14.06
2022-10-15T18:33:42.913Z,14.07
2022-10-15T18:36:46.697Z,14.07
2022-10-15T18:39:48.267Z,14.06
2022-10-15T18:42:49.807Z,14.04
2022-10-15T18:45:51.342Z,14.02
2022-10-15T18:48:52.893Z,13.99
2022-10-15T18:51:55.438Z,13.97
2022-10-15T18:54:57.046Z,13.96
2022-10-15T18:58:01.884Z,13.95
2022-10-15T19:01:22.282Z,13.94
2022-10-15T19:04:26.953Z,13.93
2022-10-15T19:07:31.606Z,13.92
2022-10-15T19:10:33.368Z,13.90
2022-10-15T19:13:36.650Z,13.89
2022-10-15T19:16:38.916Z,13.86
2022-10-15T19:19:40.496Z,13.83
2022-10-15T19:22:42.084Z,13.82
2022-10-15T19:25:43.694Z,13.79
2022-10-15T19:28:46.815Z,13.76
2022-10-15T19:31:49.908Z,13.75
2022-10-15T19:34:51.508Z,13.70
2022-10-15T19:37:53.064Z,13.68
2022-10-15T19:40:54.915Z,13.65
2022-10-15T19:43:56.511Z,13.62
2022-10-15T19:46:58.091Z,13.56
2022-10-15T19:49:59.597Z,13.51
2022-10-15T19:53:01.164Z,13.48
2022-10-15T19:56:06.128Z,13.47
2022-10-15T19:59:07.805Z,13.46
2022-10-15T20:02:12.031Z,13.43
2022-10-15T20:05:13.604Z,13.40
2022-10-15T20:08:16.112Z,13.38
2022-10-15T20:11:19.091Z,13.38
2022-10-15T20:14:20.629Z,13.41
2022-10-15T20:17:22.658Z,13.43
2022-10-15T20:20:24.377Z,13.44
2022-10-15T20:23:26.557Z,13.43
2022-10-15T20:26:28.183Z,13.40
2022-10-15T20:29:29.737Z,13.37
2022-10-15T20:32:35.323Z,13.35
2022-10-15T20:35:38.257Z,13.29
2022-10-15T20:38:40.209Z,13.24
2022-10-15T20:41:41.734Z,13.23
2022-10-15T20:44:43.260Z,13.21
2022-10-15T20:47:50.143Z,13.18
2022-10-15T20:50:53.445Z,13.15
2022-10-15T20:53:55.688Z,13.10
2022-10-15T20:56:57.400Z,13.06
2022-10-15T20:59:59.068Z,13.05
2022-10-15T21:03:00.644Z,13.03
2022-10-15T21:06:02.247Z,13.00
2022-10-15T21:09:03.992Z,12.96
2022-10-15T21:12:06.014Z,12.93
2022-10-15T21:15:07.960Z,12.92
2022-10-15T21:18:09.524Z,12.91
2022-10-15T21:21:13.223Z,12.92
2022-10-15T21:24:15.137Z,12.90
2022-10-15T21:27:16.730Z,12.88
2022-10-15T21:30:18.300Z,12.86
2022-10-15T21:33:19.872Z,12.85
2022-10-15T21:36:26.999Z,12.82
2022-10-15T21:39:28.637Z,12.78
2022-10-15T21:42:30.892Z,12.78
2022-10-15T21:45:32.438Z,12.76
2022-10-15T21:48:36.611Z,12.76
2022-10-15T21:51:38.277Z,12.72
2022-10-15T21:54:39.942Z,12.68
2022-10-15T21:57:41.492Z,12.68
2022-10-15T22:00:43.037Z,12.67
2022-10-15T22:03:45.307Z,12.65
2022-10-15T22:06:47.315Z,12.63
2022-10-15T22:09:48.913Z,12.60
2022-10-15T22:12:52.405Z,12.57
2022-10-15T22:15:53.928Z,12.61
2022-10-15T22:18:57.214Z,12.59
2022-10-15T22:21:58.787Z,12.59
2022-10-15T22:25:00.355Z,12.56
2022-10-15T22:28:01.877Z,12.49
2022-10-15T22:31:05.183Z,12.46
2022-10-15T22:34:06.711Z,12.42
2022-10-15T22:37:08.291Z,12.39
2022-10-15T22:40:11.980Z,12.36
2022-10-15T22:43:13.668Z,12.32
2022-10-15T22:46:15.196Z,12.29
2022-10-15T22:49:19.741Z,12.28
2022-10-15T22:52:21.278Z,12.25
2022-10-15T22:55:22.797Z,12.22
2022-10-15T22:58:25.564Z,12.21
2022-10-15T23:01:29.576Z,12.19
2022-10-15T23:04:31.214Z,12.18
2022-10-15T23:07:32.725Z,12.17
2022-10-15T23:10:34.297Z,12.14
2022-10-15T23:13:35.917Z,12.12
2022-10-15T23:16:45.760Z,12.10
2022-10-15T23:19:48.469Z,12.07
2022-10-15T23:22:49.951Z,12.05
2022-10-15T23:25:51.503Z,12.03
2022-10-15T23:28:56.199Z,12.01
2022-10-15T23:31:57.795Z,12.00
2022-10-15T23:34:59.351Z,11.98
2022-10-15T23:38:00.875Z,11.94
2022-10-15T23:41:04.832Z,11.93
2022-10-15T23:44:06.517Z,11.91
2022-10-15T23:47:08.300Z,11.88
2022-10-15T23:50:09.856Z,11.87
2022-10-15T23:53:11.443Z,11.84
2022-10-15T23:56:13.365Z,11.82
2022-10-15T23:59:17.145Z,11.80
